Time;durP1;ratioP1;P1;durP2;ratioP2;P2;SDS_P1;SDS_P2;PMS_P1;PMS_P2;Temp;Humidity;BMP_temperature;BMP_pressure;BME280_temperature;BME280_humidity;BME280_pressure;Samples;Min_cycle;Max_cycle;Signal;HPM_P1;HPM_P2
2024/03/27 00:00:34;;;;;;;4.10;3.63;;;;;;;9.64;100.00;98461.25;5055757;28;20143;-83
2024/03/27 00:02:59;;;;;;;4.22;3.75;;;;;;;9.65;100.00;98462.91;5055349;28;20252;-84
2024/03/27 00:05:25;;;;;;;6.88;3.53;;;;;;;9.65;100.00;98455.06;5055466;28;20351;-83
2024/03/27 00:07:50;;;;;;;3.97;3.28;;;;;;;9.67;100.00;98462.78;5055483;28;20095;-84
2024/03/27 00:10:16;;;;;;;6.97;3.33;;;;;;;9.67;100.00;98434.03;5055689;28;20060;-84
2024/03/27 00:12:41;;;;;;;5.07;3.42;;;;;;;9.68;100.00;98448.75;5055100;28;20029;-83
2024/03/27 00:15:07;;;;;;;3.45;3.15;;;;;;;9.69;100.00;98440.81;5055725;28;20051;-84
2024/03/27 00:17:32;;;;;;;3.17;2.83;;;;;;;9.69;100.00;98434.75;5055077;28;20036;-83
2024/03/27 00:19:58;;;;;;;7.75;4.15;;;;;;;9.69;100.00;98435.56;5055550;28;20292;-84
2024/03/27 00:22:23;;;;;;;3.92;2.80;;;;;;;9.70;100.00;98426.81;5037298;28;20324;-83
2024/03/27 00:24:48;;;;;;;2.80;2.55;;;;;;;9.72;100.00;98427.50;5035780;28;20095;-84
2024/03/27 00:27:14;;;;;;;2.85;2.63;;;;;;;9.73;100.00;98430.94;5035877;28;20279;-84
2024/03/27 00:29:39;;;;;;;3.78;2.63;;;;;;;9.71;100.00;98425.84;5035815;28;20041;-84
2024/03/27 00:32:05;;;;;;;2.78;2.45;;;;;;;9.73;100.00;98420.50;5035817;28;20064;-84
2024/03/27 00:34:31;;;;;;;3.60;2.45;;;;;;;9.71;100.00;98425.84;5035705;28;20060;-84
2024/03/27 00:36:59;;;;;;;5.03;2.80;;;;;;;9.71;100.00;98425.00;5035483;28;20100;-84
2024/03/27 00:39:25;;;;;;;2.33;2.13;;;;;;;9.71;100.00;98425.84;5035643;28;20037;-84
2024/03/27 00:41:50;;;;;;;4.47;2.53;;;;;;;9.70;100.00;98424.19;5046980;28;20025;-83
2024/03/27 00:44:16;;;;;;;3.08;2.22;;;;;;;9.70;100.00;98426.81;5037591;28;20064;-84
2024/03/27 00:46:41;;;;;;;2.60;2.35;;;;;;;9.70;100.00;98431.19;5055601;28;20033;-84
2024/03/27 00:49:07;;;;;;;2.42;2.22;;;;;;;9.70;100.00;98424.19;5055423;28;20044;-84
2024/03/27 00:51:33;;;;;;;2.90;2.47;;;;;;;9.69;100.00;98414.66;5055187;28;20044;-84
2024/03/27 00:53:58;;;;;;;3.88;2.55;;;;;;;9.71;100.00;98414.56;5055343;28;20090;-84
2024/03/27 00:56:26;;;;;;;2.33;2.13;;;;;;;9.70;100.00;98411.13;5055308;28;20336;-84
2024/03/27 00:58:52;;;;;;;2.40;2.20;;;;;;;9.71;100.00;98407.53;5055661;28;20039;-84
2024/03/27 01:01:18;;;;;;;3.42;2.00;;;;;;;9.70;100.00;98408.50;5055461;28;20029;-84
2024/03/27 01:03:43;;;;;;;3.55;2.03;;;;;;;9.73;100.00;98407.44;5055701;28;20037;-84
2024/03/27 01:06:09;;;;;;;3.03;2.03;;;;;;;9.73;100.00;98416.13;5037450;28;20040;-84
2024/03/27 01:08:34;;;;;;;2.70;2.33;;;;;;;9.72;100.00;98403.16;5068131;28;20059;-84
2024/03/27 01:11:00;;;;;;;2.15;2.00;;;;;;;9.73;100.00;98400.44;5057009;28;20028;-84
2024/03/27 01:13:26;;;;;;;1.77;1.67;;;;;;;9.75;100.00;98406.38;5075339;28;20036;-84
2024/03/27 01:15:52;;;;;;;4.13;2.15;;;;;;;9.75;100.00;98402.91;5074903;28;20393;-84
2024/03/27 01:18:17;;;;;;;2.30;2.10;;;;;;;9.75;100.00;98398.53;5074839;28;20313;-83
2024/03/27 01:20:43;;;;;;;2.65;2.13;;;;;;;9.77;100.00;98390.59;5075544;28;20032;-84
2024/03/27 01:23:09;;;;;;;3.08;2.10;;;;;;;9.77;100.00;98396.63;5073705;28;20036;-84
2024/03/27 01:25:36;;;;;;;2.35;2.15;;;;;;;9.79;100.00;98392.13;5053599;28;20032;-84
2024/03/27 01:28:03;;;;;;;2.10;1.90;;;;;;;9.79;100.00;98394.75;5054734;28;20024;-84
2024/03/27 01:30:28;;;;;;;2.30;2.10;;;;;;;9.80;100.00;98395.56;5036822;28;20112;-84
2024/03/27 01:32:53;;;;;;;1.95;1.80;;;;;;;9.80;100.00;98393.81;5039014;28;20032;-84
2024/03/27 01:35:19;;;;;;;1.77;1.67;;;;;;;9.81;100.00;98389.41;5058690;28;20029;-84
2024/03/27 01:37:44;;;;;;;3.85;2.33;;;;;;;9.82;100.00;98382.38;5059258;28;20084;-84
2024/03/27 01:40:10;;;;;;;1.92;1.83;;;;;;;9.83;100.00;98381.44;5040728;28;20485;-83
2024/03/27 01:42:35;;;;;;;1.70;1.60;;;;;;;9.82;100.00;98383.19;5076224;28;20412;-84
2024/03/27 01:45:01;;;;;;;2.25;1.67;;;;;;;9.83;100.00;98379.66;5078290;28;20028;-84
2024/03/27 01:47:27;;;;;;;2.85;1.90;;;;;;;9.84;100.00;98376.09;5078376;28;20043;-84
2024/03/27 01:49:53;;;;;;;2.85;1.98;;;;;;;9.84;100.00;98365.66;5078348;28;20367;-84
2024/03/27 01:52:19;;;;;;;3.30;1.73;;;;;;;9.85;100.00;98358.63;5078525;28;20044;-84
2024/03/27 01:54:44;;;;;;;2.60;2.00;;;;;;;9.84;100.00;98357.81;5078895;28;20047;-84
2024/03/27 01:57:10;;;;;;;1.88;1.65;;;;;;;9.84;100.00;98347.34;5078785;28;20032;-84
2024/03/27 01:59:35;;;;;;;2.30;1.85;;;;;;;9.84;100.00;98347.34;5060420;28;20103;-84
2024/03/27 02:02:02;;;;;;;2.78;1.90;;;;;;;9.80;100.00;98338.91;5078455;28;20035;-84
2024/03/27 02:04:28;;;;;;;2.10;1.90;;;;;;;9.82;100.00;98340.56;5076575;28;20086;-84
2024/03/27 02:06:54;;;;;;;3.58;1.88;;;;;;;9.82;100.00;98345.78;5060059;28;20024;-84
2024/03/27 02:09:20;;;;;;;4.80;2.35;;;;;;;9.81;100.00;98339.72;5078074;28;20056;-83
2024/03/27 02:11:47;;;;;;;2.10;1.67;;;;;;;9.82;100.00;98337.94;5077983;28;20120;-83
2024/03/27 02:14:14;;;;;;;1.63;1.50;;;;;;;9.81;100.00;98329.28;5078350;28;20032;-84
2024/03/27 02:16:40;;;;;;;1.73;1.63;;;;;;;9.82;100.00;98332.72;5078233;28;20131;-84
2024/03/27 02:19:05;;;;;;;1.80;1.70;;;;;;;9.82;100.00;98335.31;5078074;28;20044;-83
2024/03/27 02:21:30;;;;;;;1.67;1.58;;;;;;;9.82;100.00;98335.31;5078095;28;20425;-83
2024/03/27 02:24:19;;;;;;;2.08;1.65;;;;;;;9.83;100.00;98344.84;5078053;28;20040;-84
2024/03/27 02:26:46;;;;;;;3.63;1.50;;;;;;;9.83;100.00;98342.22;5078431;28;20292;-83
2024/03/27 02:29:11;;;;;;;2.50;1.70;;;;;;;9.84;100.00;98343.88;5077768;28;20047;-84
2024/03/27 02:31:36;;;;;;;1.73;1.60;;;;;;;9.84;100.00;98347.34;5076661;28;20074;-84
2024/03/27 02:34:02;;;;;;;1.92;1.80;;;;;;;9.84;100.00;98349.97;5077885;28;20248;-83
2024/03/27 02:36:27;;;;;;;1.58;1.40;;;;;;;9.85;100.00;98342.94;5077374;28;20380;-83
2024/03/27 02:38:52;;;;;;;2.65;1.85;;;;;;;9.86;100.00;98341.97;5077815;28;20070;-84
2024/03/27 02:41:18;;;;;;;4.22;1.90;;;;;;;9.87;100.00;98347.09;5077787;28;20020;-83
2024/03/27 02:43:43;;;;;;;2.45;1.55;;;;;;;9.87;100.00;98341.84;5076677;28;20081;-83
2024/03/27 02:46:08;;;;;;;3.80;1.98;;;;;;;9.88;100.00;98340.91;5077386;28;20051;-84
2024/03/27 02:48:34;;;;;;;2.17;1.92;;;;;;;9.86;100.00;98345.44;5077227;28;20290;-83
2024/03/27 02:50:59;;;;;;;2.83;1.60;;;;;;;9.86;100.00;98336.75;5077305;28;20327;-84
2024/03/27 02:53:24;;;;;;;2.80;1.70;;;;;;;9.88;100.00;98332.25;5077297;28;20282;-84
2024/03/27 02:55:51;;;;;;;2.00;1.50;;;;;;;9.89;100.00;98328.66;5077501;28;20036;-83
2024/03/27 02:58:16;;;;;;;3.47;1.48;;;;;;;9.89;100.00;98326.06;5077513;28;20051;-83
2024/03/27 03:00:42;;;;;;;1.77;1.30;;;;;;;9.89;100.00;98326.88;5077407;28;20235;-83
2024/03/27 03:03:08;;;;;;;1.85;1.38;;;;;;;9.91;100.00;98321.53;5077443;28;20036;-84
2024/03/27 03:05:33;;;;;;;3.05;1.33;;;;;;;9.92;100.00;98316.19;5058746;28;20235;-84
2024/03/27 03:07:58;;;;;;;3.78;1.65;;;;;;;9.93;100.00;98324.84;5077254;28;20044;-83
2024/03/27 03:10:26;;;;;;;2.47;1.40;;;;;;;9.91;100.00;98314.50;5076674;28;20036;-83
2024/03/27 03:12:51;;;;;;;4.40;1.60;;;;;;;9.90;100.00;98312.06;5076899;28;20357;-83
2024/03/27 03:15:17;;;;;;;3.47;1.63;;;;;;;9.89;100.00;98308.59;5076668;28;20091;-83
2024/03/27 03:17:43;;;;;;;2.58;1.40;;;;;;;9.91;100.00;98316.31;5076806;28;20064;-83
2024/03/27 03:20:09;;;;;;;2.03;1.35;;;;;;;9.90;100.00;98307.66;5075591;28;20027;-83
2024/03/27 03:22:34;;;;;;;3.22;1.88;;;;;;;9.93;100.00;98317.00;5076471;28;20043;-84
2024/03/27 03:25:00;;;;;;;1.70;1.60;;;;;;;9.93;100.00;98311.78;5059118;28;20020;-84
2024/03/27 03:27:25;;;;;;;1.50;1.40;;;;;;;9.93;100.00;98319.63;5076567;28;20032;-83
2024/03/27 03:29:51;;;;;;;2.88;1.90;;;;;;;9.92;100.00;98323.22;5076751;28;20036;-83
2024/03/27 03:32:17;;;;;;;1.80;1.70;;;;;;;9.93;100.00;98330.94;5076838;28;20036;-83
2024/03/27 03:34:42;;;;;;;1.80;1.40;;;;;;;9.92;100.00;98344.94;5077466;28;20375;-83
2024/03/27 03:37:08;;;;;;;4.65;2.40;;;;;;;9.82;100.00;98380.59;5076927;28;20043;-83
2024/03/27 03:39:33;;;;;;;3.15;2.10;;;;;;;9.59;100.00;98384.97;5076529;28;20223;-84
2024/03/27 03:41:58;;;;;;;4.07;1.30;;;;;;;9.33;100.00;98399.97;5058965;28;20024;-84
2024/03/27 03:44:24;;;;;;;2.78;1.40;;;;;;;9.16;100.00;98406.44;5059499;28;20048;-85
2024/03/27 03:46:49;;;;;;;2.00;1.23;;;;;;;9.02;100.00;98400.47;5059228;28;20058;-84
2024/03/27 03:49:15;;;;;;;2.60;1.10;;;;;;;8.86;100.00;98399.94;5076694;28;20024;-84
2024/03/27 03:51:42;;;;;;;6.93;1.67;;;;;;;8.82;100.00;98396.72;5077067;28;20032;-83
2024/03/27 03:54:07;;;;;;;3.22;1.45;;;;;;;8.88;100.00;98390.19;5075430;28;20302;-84
2024/03/27 03:56:33;;;;;;;3.00;1.38;;;;;;;8.98;100.00;98401.63;5076323;28;20040;-84
2024/03/27 03:58:58;;;;;;;3.80;1.45;;;;;;;8.92;100.00;98398.66;5076155;28;20044;-84
2024/03/27 04:01:23;;;;;;;2.85;1.48;;;;;;;8.89;100.00;98393.63;5076338;28;20100;-84
2024/03/27 04:03:50;;;;;;;5.57;1.50;;;;;;;8.89;100.00;98391.03;5058149;28;20035;-84
2024/03/27 04:06:15;;;;;;;6.32;1.90;;;;;;;8.89;100.00;98396.25;5075940;28;20040;-84
2024/03/27 04:08:40;;;;;;;4.50;1.48;;;;;;;8.78;100.00;98395.25;5076207;28;20036;-84
2024/03/27 04:11:06;;;;;;;5.57;1.50;;;;;;;8.76;100.00;98398.91;5075643;28;20078;-84
2024/03/27 04:13:31;;;;;;;7.45;1.55;;;;;;;8.66;100.00;98388.31;5075856;28;20036;-84
2024/03/27 04:15:56;;;;;;;4.82;1.60;;;;;;;8.70;100.00;98379.31;5057939;28;20103;-84
2024/03/27 04:18:22;;;;;;;5.43;2.05;;;;;;;8.71;100.00;98380.13;5075852;28;20028;-85
2024/03/27 04:20:47;;;;;;;6.93;2.30;;;;;;;8.59;100.00;98372.25;5075976;28;20086;-84
2024/03/27 04:23:12;;;;;;;7.45;1.60;;;;;;;8.60;100.00;98362.66;5076169;28;20089;-84
2024/03/27 04:25:38;;;;;;;6.25;2.13;;;;;;;8.60;100.00;98354.81;5075416;28;20048;-84
2024/03/27 04:28:04;;;;;;;7.07;1.92;;;;;;;8.62;100.00;98355.53;5076810;28;20035;-84
2024/03/27 04:30:30;;;;;;;7.25;2.05;;;;;;;8.47;100.00;98352.25;5076362;28;20040;-84
2024/03/27 04:32:55;;;;;;;10.48;2.22;;;;;;;8.52;100.00;98352.78;5076218;28;20272;-84
2024/03/27 04:35:21;;;;;;;5.30;1.77;;;;;;;8.44;100.00;98355.06;5076277;28;20036;-83
2024/03/27 04:37:46;;;;;;;11.40;1.67;;;;;;;8.42;100.00;98360.44;5058245;28;20039;-84
2024/03/27 04:40:12;;;;;;;9.40;2.05;;;;;;;8.38;100.00;98371.16;5058081;28;20098;-84
2024/03/27 04:42:38;;;;;;;8.20;1.65;;;;;;;8.34;100.00;98372.31;5076493;28;20035;-84
2024/03/27 04:45:04;;;;;;;6.28;1.75;;;;;;;8.17;100.00;98376.13;5076492;28;20032;-83
2024/03/27 04:47:34;;;;;;;5.88;1.83;;;;;;;8.06;100.00;98390.72;5075593;28;20058;-83
2024/03/27 04:50:00;;;;;;;5.45;1.23;;;;;;;8.00;100.00;98387.69;5076314;28;20028;-83
2024/03/27 04:52:25;;;;;;;9.80;1.45;;;;;;;8.04;100.00;98400.41;5076482;28;20365;-82
2024/03/27 04:54:51;;;;;;;6.10;1.42;;;;;;;8.00;100.00;98408.53;5076374;28;20032;-84
2024/03/27 04:57:16;;;;;;;5.85;1.20;;;;;;;8.00;100.00;98424.19;5074464;28;20032;-84
2024/03/27 04:59:42;;;;;;;8.00;2.05;;;;;;;8.03;100.00;98419.59;5076393;28;20108;-84
2024/03/27 05:02:08;;;;;;;6.55;1.40;;;;;;;8.14;100.00;98424.06;5075743;28;20324;-84
2024/03/27 05:04:33;;;;;;;3.30;1.13;;;;;;;8.12;100.00;98432.94;5075911;28;20032;-83
2024/03/27 05:06:59;;;;;;;4.55;1.85;;;;;;;8.16;100.00;98426.56;5056841;28;20074;-84
2024/03/27 05:09:24;;;;;;;6.40;1.55;;;;;;;8.21;100.00;98434.91;5073859;28;20220;-84
2024/03/27 05:11:50;;;;;;;6.45;1.80;;;;;;;8.16;100.00;98439.63;5075454;28;20021;-85
2024/03/27 05:14:16;;;;;;;3.83;1.33;;;;;;;8.12;100.00;98439.00;5075780;28;20024;-84
2024/03/27 05:16:41;;;;;;;3.58;1.60;;;;;;;8.10;100.00;98443.47;5075675;28;20020;-84
2024/03/27 05:19:07;;;;;;;3.70;1.10;;;;;;;8.19;100.00;98448.06;5057354;28;20024;-85
2024/03/27 05:21:32;;;;;;;7.22;1.75;;;;;;;8.15;100.00;98438.78;5075153;28;20059;-84
2024/03/27 05:23:57;;;;;;;4.63;2.33;;;;;;;8.22;100.00;98418.31;5075640;28;20311;-84
2024/03/27 05:26:23;;;;;;;2.75;1.52;;;;;;;8.18;100.00;98425.53;5074810;28;20042;-84
2024/03/27 05:28:49;;;;;;;6.88;1.60;;;;;;;8.16;100.00;98422.19;5075602;28;20082;-84
2024/03/27 05:31:14;;;;;;;6.53;1.90;;;;;;;8.12;100.00;98409.50;5075951;28;20036;-84
2024/03/27 05:33:40;;;;;;;3.42;1.38;;;;;;;8.18;100.00;98417.69;5075786;28;20042;-84
2024/03/27 05:36:05;;;;;;;6.38;1.65;;;;;;;8.16;100.00;98418.75;5075438;28;20036;-84
2024/03/27 05:38:31;;;;;;;6.10;1.50;;;;;;;8.19;100.00;98435.03;5075618;28;20112;-84
2024/03/27 05:40:57;;;;;;;2.97;1.55;;;;;;;8.14;100.00;98431.91;5075576;28;20039;-84
2024/03/27 05:43:22;;;;;;;12.10;2.90;;;;;;;8.16;100.00;98447.44;5074492;28;20060;-84
2024/03/27 05:45:47;;;;;;;5.03;1.88;;;;;;;8.14;100.00;98450.16;5057149;28;20032;-84
2024/03/27 05:48:13;;;;;;;2.22;1.73;;;;;;;8.20;100.00;98444.50;5074768;28;20048;-84
2024/03/27 05:50:39;;;;;;;7.00;3.35;;;;;;;8.21;100.00;98433.13;5073485;28;20233;-84
2024/03/27 05:53:04;;;;;;;3.38;2.72;;;;;;;8.24;100.00;98432.94;5056644;28;20028;-84
2024/03/27 05:55:29;;;;;;;7.30;3.15;;;;;;;8.21;100.00;98433.13;5074500;28;20039;-84
2024/03/27 05:57:55;;;;;;;5.32;2.80;;;;;;;8.21;100.00;98427.09;5075287;28;20211;-85
2024/03/27 06:00:20;;;;;;;4.88;3.15;;;;;;;8.13;100.00;98425.03;5056610;28;20089;-84
2024/03/27 06:02:46;;;;;;;5.20;3.95;;;;;;;8.22;100.00;98445.25;5074237;28;20037;-84
2024/03/27 06:05:11;;;;;;;8.35;4.10;;;;;;;8.21;100.00;98438.34;5072657;28;20433;-84
2024/03/27 06:07:36;;;;;;;7.18;4.88;;;;;;;8.19;100.00;98461.09;5075050;28;20337;-84
2024/03/27 06:10:02;;;;;;;9.95;5.38;;;;;;;8.15;100.00;98471.81;5075016;28;20319;-84
2024/03/27 06:12:27;;;;;;;5.22;4.78;;;;;;;8.20;100.00;98490.59;5074745;28;20037;-84
2024/03/27 06:14:53;;;;;;;6.70;5.10;;;;;;;8.19;100.00;98484.56;5074760;28;20135;-84
2024/03/27 06:17:19;;;;;;;5.20;4.80;;;;;;;8.25;100.00;98488.53;5074445;28;20063;-84
2024/03/27 06:19:45;;;;;;;7.00;6.05;;;;;;;8.29;100.00;98499.56;5076086;28;20040;-84
2024/03/27 06:22:10;;;;;;;6.35;5.65;;;;;;;8.31;100.00;98502.91;5059834;28;20035;-85
2024/03/27 06:24:35;;;;;;;11.23;6.45;;;;;;;8.28;100.00;98511.78;5077595;28;20036;-84
2024/03/27 06:27:01;;;;;;;6.60;5.82;;;;;;;8.27;100.00;98505.72;5078450;28;20100;-84
2024/03/27 06:29:26;;;;;;;5.72;5.18;;;;;;;8.29;100.00;98505.63;5078824;28;20039;-83
2024/03/27 06:31:51;;;;;;;7.20;5.70;;;;;;;8.26;100.00;98500.63;5059273;28;20036;-84
2024/03/27 06:34:17;;;;;;;7.95;4.03;;;;;;;8.22;100.00;98493.94;5077458;28;20040;-84
2024/03/27 06:36:42;;;;;;;7.28;3.88;;;;;;;8.21;100.00;98495.72;5078161;28;20127;-84
2024/03/27 06:39:12;;;;;;;4.38;3.33;;;;;;;8.20;100.00;98494.03;5077621;28;20044;-84
2024/03/27 06:41:42;;;;;;;8.05;3.53;;;;;;;8.22;100.00;98501.75;5078103;28;20032;-84
2024/03/27 06:44:08;;;;;;;5.05;3.33;;;;;;;8.20;100.00;98501.03;5059404;28;20096;-84
2024/03/27 06:46:36;;;;;;;3.13;2.80;;;;;;;8.20;100.00;98509.69;5077627;28;20086;-84
2024/03/27 06:49:17;;;;;;;3.70;2.65;;;;;;;8.21;100.00;98506.16;5078186;28;20064;-84
2024/03/27 06:51:46;;;;;;;6.50;2.97;;;;;;;8.20;100.00;98507.06;5077602;28;20230;-84
2024/03/27 06:54:11;;;;;;;3.22;2.20;;;;;;;8.21;100.00;98510.53;5077436;28;20393;-84
2024/03/27 06:56:37;;;;;;;2.78;2.40;;;;;;;8.21;100.00;98510.53;5077858;28;20100;-84
2024/03/27 06:59:02;;;;;;;2.63;2.10;;;;;;;8.22;100.00;98515.66;5075786;28;20040;-83
2024/03/27 07:01:28;;;;;;;3.72;2.20;;;;;;;8.20;100.00;98509.69;5057475;28;20378;-83
2024/03/27 07:03:53;;;;;;;3.55;2.33;;;;;;;8.17;100.00;98512.50;5057699;28;20096;-84
2024/03/27 07:06:19;;;;;;;3.15;2.35;;;;;;;8.18;100.00;98519.38;5057304;28;20040;-83
2024/03/27 07:08:44;;;;;;;3.20;2.25;;;;;;;8.20;100.00;98516.66;5057271;28;20292;-84
2024/03/27 07:11:09;;;;;;;4.72;2.78;;;;;;;8.11;100.00;98522.50;5062585;28;20377;-83
2024/03/27 07:13:35;;;;;;;5.78;2.53;;;;;;;8.13;100.00;98521.50;5077248;28;20032;-83
2024/03/27 07:16:00;;;;;;;3.70;2.90;;;;;;;8.12;100.00;98517.19;5077746;28;20327;-84
2024/03/27 07:18:27;;;;;;;3.53;2.60;;;;;;;8.11;100.00;98528.56;5062677;28;20343;-83
2024/03/27 07:20:57;;;;;;;5.68;2.63;;;;;;;8.15;100.00;98531.78;5057232;28;20043;-83
2024/03/27 07:23:23;;;;;;;5.68;2.75;;;;;;;8.19;100.00;98539.31;5025905;28;20102;-84
2024/03/27 07:25:48;;;;;;;3.75;2.80;;;;;;;8.19;100.00;98538.50;5059775;28;20224;-83
2024/03/27 07:28:14;;;;;;;5.82;3.78;;;;;;;8.21;100.00;98547.03;5057602;28;20117;-83
2024/03/27 07:30:39;;;;;;;4.10;3.00;;;;;;;8.23;100.00;98545.97;5050196;28;20035;-83
2024/03/27 07:33:05;;;;;;;4.38;3.15;;;;;;;8.30;100.00;98556.03;5045239;28;20044;-83
2024/03/27 07:35:31;;;;;;;6.68;3.58;;;;;;;8.34;100.00;98567.91;5047205;28;20028;-83
2024/03/27 07:37:58;;;;;;;4.20;3.47;;;;;;;8.37;100.00;98570.31;5053909;28;20029;-84
2024/03/27 07:40:23;;;;;;;5.40;3.58;;;;;;;8.40;100.00;98581.38;5037904;28;20025;-83
2024/03/27 07:42:49;;;;;;;4.72;3.42;;;;;;;8.40;100.00;98573.56;5055919;28;20029;-84
2024/03/27 07:45:14;;;;;;;4.20;3.78;;;;;;;8.34;100.00;98576.56;5067609;28;20360;-83
2024/03/27 07:47:39;;;;;;;4.07;3.08;;;;;;;8.35;100.00;98575.63;5076540;28;20032;-84
2024/03/27 07:50:07;;;;;;;4.60;3.40;;;;;;;8.35;100.00;98580.84;5076571;28;20330;-83
2024/03/27 07:52:33;;;;;;;3.85;3.25;;;;;;;8.37;100.00;98576.34;5060908;28;20546;-84
2024/03/27 07:54:58;;;;;;;4.18;2.97;;;;;;;8.39;100.00;98581.47;5055252;28;20041;-83
2024/03/27 07:57:23;;;;;;;6.07;3.00;;;;;;;8.41;100.00;98584.81;5055802;28;20043;-83
2024/03/27 07:59:49;;;;;;;6.63;3.05;;;;;;;8.39;100.00;98582.31;5055427;28;20102;-84
2024/03/27 08:02:14;;;;;;;3.28;2.97;;;;;;;8.43;100.00;98580.34;5055942;28;20291;-83
2024/03/27 08:04:39;;;;;;;3.50;3.10;;;;;;;8.43;100.00;98583.78;5054650;28;20330;-83
2024/03/27 08:07:05;;;;;;;3.78;3.13;;;;;;;8.50;100.00;98586.00;5055511;28;20045;-83
2024/03/27 08:09:30;;;;;;;3.55;3.22;;;;;;;8.47;100.00;98570.53;5052576;28;20522;-84
2024/03/27 08:11:56;;;;;;;4.43;3.40;;;;;;;8.49;100.00;98587.75;5042295;28;20328;-83
2024/03/27 08:14:22;;;;;;;6.63;3.95;;;;;;;8.51;100.00;98577.22;5068939;28;20095;-83
2024/03/27 08:16:50;;;;;;;3.92;3.55;;;;;;;8.52;100.00;98578.91;5075147;28;20043;-83
2024/03/27 08:19:15;;;;;;;5.38;4.97;;;;;;;8.50;100.00;98586.00;5054510;28;20017;-83
2024/03/27 08:21:41;;;;;;;8.82;5.78;;;;;;;8.49;100.00;98585.13;5068671;28;20229;-84
2024/03/27 08:24:06;;;;;;;9.25;5.90;;;;;;;8.51;100.00;98585.88;5062524;28;20064;-83
2024/03/27 08:26:32;;;;;;;7.40;6.28;;;;;;;8.50;100.00;98593.81;5049707;28;20515;-83
2024/03/27 08:28:58;;;;;;;11.63;6.80;;;;;;;8.49;100.00;98592.13;5064756;28;20037;-84
2024/03/27 08:31:23;;;;;;;6.53;5.82;;;;;;;8.51;100.00;98587.66;5049816;28;20032;-84
2024/03/27 08:33:48;;;;;;;12.82;5.90;;;;;;;8.52;100.00;98573.69;5046287;28;20033;-83
2024/03/27 08:36:14;;;;;;;5.22;4.82;;;;;;;8.54;100.00;98572.63;5049746;28;20024;-84
2024/03/27 08:38:39;;;;;;;6.35;4.28;;;;;;;8.59;100.00;98577.53;5066849;28;20036;-83
2024/03/27 08:41:04;;;;;;;5.55;4.47;;;;;;;8.59;100.00;98578.38;5063605;28;20021;-83
2024/03/27 08:43:30;;;;;;;5.65;3.95;;;;;;;8.64;100.00;98589.34;5065904;28;20566;-83
2024/03/27 08:45:55;;;;;;;3.42;3.00;;;;;;;8.69;100.00;98591.59;5067755;28;20025;-84
2024/03/27 08:48:21;;;;;;;3.67;3.22;;;;;;;8.74;100.00;98601.75;5067235;28;20324;-83
2024/03/27 08:50:47;;;;;;;11.25;3.55;;;;;;;8.73;100.00;98597.44;5066346;28;20067;-84
2024/03/27 08:53:14;;;;;;;4.95;2.70;;;;;;;8.75;100.00;98595.56;5052918;28;20043;-84
2024/03/27 08:55:40;;;;;;;3.08;2.80;;;;;;;8.80;100.00;98596.09;5070126;28;20390;-84
2024/03/27 08:58:06;;;;;;;4.47;2.60;;;;;;;8.79;100.00;98597.88;5068474;28;20275;-84
2024/03/27 09:00:32;;;;;;;4.03;2.90;;;;;;;8.87;100.00;98605.16;5067044;28;20339;-84
2024/03/27 09:02:57;;;;;;;4.63;2.70;;;;;;;8.91;100.00;98614.44;5069536;28;20027;-83
2024/03/27 09:05:23;;;;;;;5.15;2.92;;;;;;;8.94;100.00;98613.41;5065783;28;20032;-83
2024/03/27 09:07:48;;;;;;;2.80;2.60;;;;;;;8.92;100.00;98616.13;5067205;28;20052;-83
2024/03/27 09:10:14;;;;;;;6.15;3.10;;;;;;;8.95;100.00;98633.34;5066231;28;20223;-83
2024/03/27 09:12:39;;;;;;;3.33;2.97;;;;;;;8.93;100.00;98624.78;5071222;28;20028;-83
2024/03/27 09:15:05;;;;;;;4.20;2.90;;;;;;;8.87;100.00;98623.44;5051606;28;20027;-83
2024/03/27 09:17:31;;;;;;;4.63;2.80;;;;;;;8.89;100.00;98639.81;5067621;28;20520;-83
2024/03/27 09:19:56;;;;;;;4.28;3.15;;;;;;;8.92;100.00;98631.78;5050351;28;20028;-83
2024/03/27 09:22:22;;;;;;;6.65;3.83;;;;;;;8.95;100.00;98642.03;5064361;28;20484;-83
2024/03/27 09:24:47;;;;;;;4.57;2.70;;;;;;;8.96;100.00;98640.25;5064943;28;20099;-84
2024/03/27 09:27:12;;;;;;;2.88;2.58;;;;;;;8.98;100.00;98644.41;5066071;28;20334;-83
2024/03/27 09:29:38;;;;;;;4.00;2.97;;;;;;;9.01;100.00;98638.97;5053563;28;20032;-84
2024/03/27 09:32:03;;;;;;;5.50;3.10;;;;;;;8.94;100.00;98642.97;5067271;28;20048;-83
2024/03/27 09:34:30;;;;;;;3.70;3.35;;;;;;;8.98;100.00;98643.59;5067503;28;20327;-83
2024/03/27 09:36:55;;;;;;;8.25;3.40;;;;;;;8.97;100.00;98640.16;5066025;28;20387;-83
2024/03/27 09:39:22;;;;;;;5.20;3.22;;;;;;;9.01;100.00;98646.81;5067399;28;20071;-83
2024/03/27 09:41:47;;;;;;;3.78;2.85;;;;;;;9.01;100.00;98640.78;5063398;28;20032;-83
2024/03/27 09:44:15;;;;;;;3.15;2.95;;;;;;;9.08;100.00;98642.00;5055466;28;20098;-84
2024/03/27 09:46:41;;;;;;;3.70;3.15;;;;;;;9.13;100.00;98631.22;5061805;28;20035;-83
2024/03/27 09:49:10;;;;;;;8.13;3.58;;;;;;;9.18;100.00;98635.19;5066796;28;20358;-83
2024/03/27 09:51:40;;;;;;;6.13;3.55;;;;;;;9.22;100.00;98635.81;5066903;28;20252;-83
2024/03/27 09:54:06;;;;;;;6.07;3.50;;;;;;;9.28;100.00;98630.19;5053187;28;20028;-84
2024/03/27 09:56:35;;;;;;;5.80;4.28;;;;;;;9.33;100.00;98632.44;5072936;28;20036;-83
2024/03/27 09:59:01;;;;;;;5.63;4.50;;;;;;;9.38;100.00;98636.41;5069714;28;20960;-83
2024/03/27 10:01:27;;;;;;;4.95;4.30;;;;;;;9.41;100.00;98641.41;5071439;28;21007;-83
2024/03/27 10:03:53;;;;;;;5.82;4.10;;;;;;;9.46;100.00;98643.72;5070072;28;20371;-83
2024/03/27 10:06:18;;;;;;;6.78;4.25;;;;;;;9.48;100.00;98636.59;5073961;28;20055;-83
2024/03/27 10:08:46;;;;;;;6.55;4.45;;;;;;;9.52;100.00;98639.84;5070313;28;20040;-83
2024/03/27 10:11:11;;;;;;;4.82;4.35;;;;;;;9.53;100.00;98634.50;5053563;28;20086;-84
2024/03/27 10:13:37;;;;;;;6.13;4.68;;;;;;;9.53;100.00;98633.63;5072941;28;20040;-86
2024/03/27 10:16:02;;;;;;;4.85;4.35;;;;;;;9.53;100.00;98638.88;5071614;28;20028;-83
2024/03/27 10:18:29;;;;;;;7.30;4.18;;;;;;;9.49;100.00;98645.25;5069294;28;20024;-83
2024/03/27 10:20:54;;;;;;;5.00;4.60;;;;;;;9.48;100.00;98654.88;5071122;28;20343;-84
2024/03/27 10:23:20;;;;;;;7.45;4.78;;;;;;;9.45;100.00;98662.94;5070900;28;20055;-83
2024/03/27 10:25:46;;;;;;;5.53;5.00;;;;;;;9.47;100.00;98675.91;5055349;28;20024;-84
2024/03/27 10:28:13;;;;;;;5.88;5.38;;;;;;;9.47;100.00;98681.13;5069093;28;20029;-84
2024/03/27 10:30:38;;;;;;;5.65;5.22;;;;;;;9.41;100.00;98683.22;5069266;28;20037;-83
2024/03/27 10:33:05;;;;;;;6.38;5.82;;;;;;;9.42;100.00;98681.44;5069454;28;20041;-83
2024/03/27 10:35:33;;;;;;;6.53;5.72;;;;;;;9.45;100.00;98688.22;5070027;28;20078;-83
2024/03/27 10:37:59;;;;;;;6.30;5.70;;;;;;;9.44;100.00;98691.78;5072023;28;20036;-83
2024/03/27 10:40:24;;;;;;;5.95;5.22;;;;;;;9.49;100.00;98692.28;5054905;28;20023;-84
2024/03/27 10:43:02;;;;;;;7.07;5.65;;;;;;;9.52;100.00;98713.00;5070709;28;20035;-83
2024/03/27 10:45:30;;;;;;;6.65;5.32;;;;;;;9.40;100.00;98710.31;5070416;28;20032;-83
2024/03/27 10:47:57;;;;;;;6.30;5.78;;;;;;;9.37;100.00;98702.66;5070844;28;20123;-84
2024/03/27 10:50:25;;;;;;;7.10;6.00;;;;;;;9.37;100.00;98692.22;5054448;28;20302;-83
2024/03/27 10:52:52;;;;;;;5.90;5.50;;;;;;;9.43;100.00;98698.78;5069421;28;20040;-83
2024/03/27 10:55:17;;;;;;;5.38;4.88;;;;;;;9.48;100.00;98695.84;5069612;28;20254;-84
2024/03/27 10:57:43;;;;;;;6.88;5.40;;;;;;;9.50;100.00;98689.56;5067441;28;20210;-84
2024/03/27 11:00:12;;;;;;;5.65;5.25;;;;;;;9.48;100.00;98698.44;5053706;28;20110;-83
2024/03/27 11:02:37;;;;;;;5.70;5.18;;;;;;;9.49;100.00;98698.34;5068646;28;20061;-83
2024/03/27 11:05:05;;;;;;;5.72;5.13;;;;;;;9.55;100.00;98687.47;5067697;28;20135;-83
2024/03/27 11:07:35;;;;;;;4.75;4.35;;;;;;;9.60;100.00;98692.38;5069195;28;20254;-83
2024/03/27 11:10:00;;;;;;;5.45;5.03;;;;;;;9.64;100.00;98683.38;5053894;28;20025;-83
2024/03/27 11:12:27;;;;;;;7.47;6.70;;;;;;;9.67;100.00;98672.69;5047524;28;20039;-84
2024/03/27 11:14:52;;;;;;;6.78;6.20;;;;;;;9.72;100.00;98667.97;5069262;28;20081;-83
2024/03/27 11:17:26;;;;;;;6.32;5.75;;;;;;;9.76;100.00;98651.13;5070940;28;20032;-83
2024/03/27 11:19:55;;;;;;;6.80;6.20;;;;;;;9.80;100.00;98634.28;5070746;28;20220;-83
2024/03/27 11:22:23;;;;;;;8.00;7.40;;;;;;;9.84;100.00;98637.53;5070401;28;20020;-83
2024/03/27 11:24:48;;;;;;;8.48;6.93;;;;;;;9.86;100.00;98646.06;5067227;28;20123;-83
2024/03/27 11:27:28;;;;;;;7.22;6.63;;;;;;;9.88;100.00;98643.34;5069438;28;20311;-83